createdAt,value
2022-08-22T00:00:14.467Z,99442.66
2022-08-22T00:01:40.037Z,99443.67
2022-08-22T00:02:46.131Z,99483.18
2022-08-22T00:02:48.245Z,99487.75
2022-08-22T00:02:54.555Z,99473.55
2022-08-22T00:02:59.713Z,99487.59
2022-08-22T00:03:16.331Z,99483.65
2022-08-22T00:04:12.821Z,99447.21
2022-08-22T00:06:49.677Z,99452.24
2022-08-22T00:08:01.990Z,99444.36
2022-08-22T00:09:17.470Z,99448.92
2022-08-22T00:10:25.254Z,99448.92
2022-08-22T00:11:41.337Z,99448.92
2022-08-22T00:14:26.336Z,99452.39
2022-08-22T00:15:43.457Z,99450.75
2022-08-22T00:18:13.068Z,99444.30
2022-08-22T00:20:45.442Z,99440.92
2022-08-22T00:23:18.636Z,99440.92
2022-08-22T00:24:30.812Z,99449.07
2022-08-22T00:25:45.839Z,99443.80
2022-08-22T00:27:24.752Z,99437.56
2022-08-22T00:28:36.635Z,99442.80
2022-08-22T00:29:42.072Z,99449.20
2022-08-22T00:32:17.276Z,99445.45
2022-08-22T00:33:29.297Z,99441.09
2022-08-22T00:34:54.315Z,99446.65
2022-08-22T00:36:07.194Z,99445.66
2022-08-22T00:37:25.435Z,99450.22
2022-08-22T00:38:30.375Z,99445.81
2022-08-22T00:39:51.484Z,99442.95
2022-08-22T00:41:00.674Z,99440.27
2022-08-22T00:42:31.397Z,99445.66
2022-08-22T00:45:15.706Z,99438.50
2022-08-22T00:46:57.134Z,99444.26
2022-08-22T00:48:39.153Z,99447.11
2022-08-22T00:49:45.266Z,99441.71
2022-08-22T00:51:03.620Z,99440.72
2022-08-22T00:52:29.836Z,99439.85
2022-08-22T00:54:02.714Z,99452.66
2022-08-22T00:55:11.527Z,99449.12
2022-08-22T00:56:49.880Z,99460.91
2022-08-22T00:59:51.017Z,99453.65
2022-08-22T01:00:57.514Z,99447.42
2022-08-22T01:02:23.249Z,99451.95
2022-08-22T01:03:38.513Z,99467.14
2022-08-22T01:04:53.527Z,99461.75
2022-08-22T01:07:48.362Z,99461.70
2022-08-22T01:09:12.847Z,99464.59
2022-08-22T01:10:23.194Z,99462.89
2022-08-22T01:11:50.010Z,99459.36
2022-08-22T01:13:17.593Z,99468.29
2022-08-22T01:14:35.818Z,99459.36
2022-08-22T01:15:38.282Z,99471.86
2022-08-22T01:17:19.672Z,99461.90
2022-08-22T01:18:29.089Z,99462.05
2022-08-22T01:21:31.931Z,99460.91
2022-08-22T01:22:50.311Z,99451.95
2022-08-22T01:24:02.514Z,99458.36
2022-08-22T01:25:31.696Z,99461.06
2022-08-22T01:26:46.955Z,99463.91
2022-08-22T01:28:15.643Z,99457.49
2022-08-22T01:29:45.162Z,99459.36
2022-08-22T01:33:00.755Z,99453.75
2022-08-22T01:34:13.238Z,99457.49
2022-08-22T01:35:47.029Z,99457.80
2022-08-22T01:37:23.274Z,99460.50
2022-08-22T01:38:46.123Z,99461.34
2022-08-22T01:41:37.956Z,99467.55
2022-08-22T01:44:10.988Z,99463.30
2022-08-22T01:45:24.564Z,99466.85
2022-08-22T01:47:02.894Z,99461.45
2022-08-22T01:48:19.082Z,99469.43
2022-08-22T01:49:41.318Z,99466.61
2022-08-22T01:50:53.456Z,99467.45
2022-08-22T01:52:05.566Z,99467.30
2022-08-22T01:53:11.406Z,99467.30
2022-08-22T01:54:23.271Z,99462.73
2022-08-22T01:57:02.725Z,99462.05
2022-08-22T01:58:32.633Z,99463.91
2022-08-22T01:59:42.359Z,99465.74
2022-08-22T02:01:04.685Z,99465.74
2022-08-22T02:02:14.541Z,99466.73
2022-08-22T02:05:07.392Z,99467.55
2022-08-22T02:06:16.987Z,99470.15
2022-08-22T02:07:31.520Z,99476.23
2022-08-22T02:08:48.574Z,99468.14
2022-08-22T02:10:21.885Z,99470.98
2022-08-22T02:13:13.888Z,99476.06
2022-08-22T02:14:43.397Z,99469.99
2022-08-22T02:17:31.262Z,99468.09
2022-08-22T02:18:43.321Z,99472.70
2022-08-22T02:21:44.110Z,99471.66
2022-08-22T02:23:16.117Z,99470.98
2022-08-22T02:24:37.126Z,99471.14
2022-08-22T02:25:52.406Z,99472.12
2022-08-22T02:27:14.406Z,99470.45
2022-08-22T02:28:23.307Z,99471.41
2022-08-22T02:29:35.616Z,99473.27
2022-08-22T02:32:23.935Z,99468.70
2022-08-22T02:33:36.263Z,99468.71
2022-08-22T02:34:51.529Z,99465.30
2022-08-22T02:37:16.235Z,99470.83
2022-08-22T02:38:29.681Z,99474.72
2022-08-22T02:40:02.484Z,99480.11
2022-08-22T02:41:24.187Z,99474.72
2022-08-22T02:42:45.944Z,99477.41
2022-08-22T02:44:06.642Z,99474.00
2022-08-22T02:45:28.075Z,99474.98
2022-08-22T02:46:55.497Z,99482.24
2022-08-22T02:48:18.334Z,99477.98
2022-08-22T02:49:43.952Z,99475.30
2022-08-22T02:50:49.836Z,99479.12
2022-08-22T02:52:09.652Z,99483.60
2022-08-22T02:53:35.586Z,99490.45
2022-08-22T02:54:48.385Z,99485.38
2022-08-22T02:55:54.409Z,99487.91
2022-08-22T02:57:03.966Z,99493.56
2022-08-22T02:59:39.287Z,99485.48
2022-08-22T03:01:56.985Z,99490.17
2022-08-22T03:03:05.220Z,99495.86
2022-08-22T03:04:33.933Z,99492.03
2022-08-22T03:05:40.160Z,99501.50
2022-08-22T03:08:26.652Z,99490.02
2022-08-22T03:09:33.887Z,99491.89
2022-08-22T03:10:39.029Z,99491.02
2022-08-22T03:11:45.873Z,99489.45
2022-08-22T03:13:04.831Z,99488.86
2022-08-22T03:14:16.979Z,99484.88
2022-08-22T03:15:29.791Z,99492.77
2022-08-22T03:16:47.022Z,99492.28
2022-08-22T03:19:30.064Z,99493.92
2022-08-22T03:21:00.784Z,99488.43
2022-08-22T03:22:07.504Z,99495.77
2022-08-22T03:23:32.211Z,99490.56
2022-08-22T03:26:02.498Z,99491.36
2022-08-22T03:27:34.194Z,99497.50
2022-08-22T03:29:09.244Z,99492.31
2022-08-22T03:30:33.160Z,99502.86
2022-08-22T03:31:36.445Z,99499.47
2022-08-22T03:32:56.819Z,99505.17
2022-08-22T03:34:22.858Z,99507.19
2022-08-22T03:35:37.734Z,99514.34
2022-08-22T03:36:41.122Z,99515.23
2022-08-22T03:37:43.361Z,99520.70
2022-08-22T03:38:50.355Z,99520.02
2022-08-22T03:40:08.431Z,99521.17
2022-08-22T03:41:36.324Z,99520.55
2022-08-22T03:42:56.485Z,99518.88
2022-08-22T03:44:11.631Z,99524.44
2022-08-22T03:45:40.742Z,99519.37
2022-08-22T03:47:20.688Z,99522.37
2022-08-22T03:48:46.138Z,99518.28
2022-08-22T03:49:59.744Z,99523.09
2022-08-22T03:51:15.282Z,99521.83
2022-08-22T03:52:38.252Z,99528.64
2022-08-22T03:53:47.109Z,99530.08
2022-08-22T03:56:32.701Z,99523.92
2022-08-22T03:58:00.134Z,99528.16
2022-08-22T03:59:28.237Z,99525.33
2022-08-22T04:01:04.325Z,99531.27
2022-08-22T04:02:42.045Z,99525.59
2022-08-22T04:03:36.411Z,99526.18
2022-08-22T04:04:54.689Z,99531.28
2022-08-22T04:07:33.941Z,99524.62
2022-08-22T04:08:59.718Z,99531.72
2022-08-22T04:10:38.822Z,99535.11
2022-08-22T04:13:30.136Z,99530.89
2022-08-22T04:16:08.862Z,99528.05
2022-08-22T04:17:18.936Z,99524.62
2022-08-22T04:18:44.950Z,99522.80
2022-08-22T04:20:01.891Z,99527.06
2022-08-22T04:21:20.423Z,99530.45
2022-08-22T04:22:32.392Z,99530.31
2022-08-22T04:23:47.548Z,99533.73
2022-08-22T04:25:07.945Z,99527.33
2022-08-22T04:27:30.662Z,99529.47
2022-08-22T04:28:39.290Z,99539.13
2022-08-22T04:30:17.306Z,99538.97
2022-08-22T04:32:59.462Z,99545.23
2022-08-22T04:34:04.400Z,99542.36
2022-08-22T04:35:31.907Z,99547.45
2022-08-22T04:36:42.454Z,99551.60
2022-08-22T04:37:55.022Z,99549.48
2022-08-22T04:40:37.083Z,99548.88
2022-08-22T04:42:16.336Z,99557.86
2022-08-22T04:43:28.100Z,99559.56
2022-08-22T04:44:34.202Z,99554.03
2022-08-22T04:45:51.902Z,99561.39
2022-08-22T04:47:01.121Z,99558.70
2022-08-22T04:49:40.705Z,99561.08
2022-08-22T04:50:49.083Z,99564.66
2022-08-22T04:51:55.201Z,99557.41
2022-08-22T04:54:46.210Z,99562.38
2022-08-22T04:55:55.163Z,99564.22
2022-08-22T04:58:56.689Z,99556.84
2022-08-22T05:00:00.777Z,99561.53
2022-08-22T05:01:09.937Z,99561.53
2022-08-22T05:02:14.553Z,99559.67
2022-08-22T05:03:17.071Z,99552.45
2022-08-22T05:04:23.045Z,99557.55
2022-08-22T05:05:29.454Z,99560.97
2022-08-22T05:06:35.554Z,99557.11
2022-08-22T05:07:47.436Z,99560.52
2022-08-22T05:08:49.903Z,99559.53
2022-08-22T05:09:58.104Z,99565.63
2022-08-22T05:11:01.913Z,99570.87
2022-08-22T05:12:09.587Z,99565.33
2022-08-22T05:13:27.630Z,99564.48
2022-08-22T05:15:56.414Z,99551.27
2022-08-22T05:16:58.762Z,99558.52
2022-08-22T05:18:10.686Z,99561.22
2022-08-22T05:20:30.553Z,99564.77
2022-08-22T05:21:35.699Z,99565.92
2022-08-22T05:22:43.241Z,99568.47
2022-08-22T05:25:15.079Z,99566.47
2022-08-22T05:26:18.652Z,99565.63
2022-08-22T05:27:27.435Z,99563.77
2022-08-22T05:28:36.178Z,99571.73
2022-08-22T05:29:41.364Z,99566.34
2022-08-22T05:30:45.729Z,99569.88
2022-08-22T05:32:01.837Z,99579.68
2022-08-22T05:33:19.926Z,99572.58
2022-08-22T05:34:23.958Z,99570.03
2022-08-22T05:35:39.554Z,99569.16
2022-08-22T05:38:07.744Z,99569.02
2022-08-22T05:39:19.670Z,99569.88
2022-08-22T05:40:26.470Z,99566.20
2022-08-22T05:41:32.914Z,99565.33
2022-08-22T05:42:35.490Z,99566.20
2022-08-22T05:43:40.821Z,99567.88
2022-08-22T05:44:44.313Z,99572.43
2022-08-22T05:45:47.292Z,99571.73
2022-08-22T05:46:52.918Z,99568.17
2022-08-22T05:47:58.655Z,99568.32
2022-08-22T05:49:01.228Z,99571.02
2022-08-22T05:51:39.846Z,99575.55
2022-08-22T05:52:46.205Z,99579.95
2022-08-22T05:53:50.915Z,99573.72
2022-08-22T05:56:21.684Z,99573.55
2022-08-22T05:57:30.065Z,99574.55
2022-08-22T05:58:59.569Z,99573.72
2022-08-22T06:00:13.907Z,99569.30
2022-08-22T06:01:37.757Z,99574.70
2022-08-22T06:02:56.204Z,99566.75
2022-08-22T06:04:06.251Z,99575.00
2022-08-22T06:05:11.868Z,99578.68
2022-08-22T06:06:15.731Z,99580.53
2022-08-22T06:07:24.811Z,99575.29
2022-08-22T06:08:33.774Z,99579.96
2022-08-22T06:09:49.293Z,99574.57
2022-08-22T06:12:21.692Z,99574.55
2022-08-22T06:13:24.502Z,99576.28
2022-08-22T06:14:41.754Z,99576.13
2022-08-22T06:15:51.683Z,99570.73
2022-08-22T06:17:07.773Z,99574.30
2022-08-22T06:18:12.699Z,99575.14
2022-08-22T06:19:19.373Z,99575.98
2022-08-22T06:21:39.317Z,99566.73
2022-08-22T06:22:46.664Z,99579.41
2022-08-22T06:23:58.245Z,99576.70
2022-08-22T06:25:12.628Z,99583.95
2022-08-22T06:26:20.527Z,99581.95
2022-08-22T06:27:22.788Z,99584.65
2022-08-22T06:28:26.402Z,99587.49
2022-08-22T06:29:32.531Z,99582.25
2022-08-22T06:30:36.157Z,99581.37
2022-08-22T06:33:01.096Z,99571.30
2022-08-22T06:34:08.451Z,99570.33
2022-08-22T06:36:25.690Z,99578.10
2022-08-22T06:39:17.022Z,99575.11
2022-08-22T06:40:20.377Z,99571.59
2022-08-22T06:41:23.774Z,99571.59
2022-08-22T06:42:31.015Z,99566.88
2022-08-22T06:43:38.063Z,99573.00
2022-08-22T06:44:44.739Z,99571.14
2022-08-22T06:45:47.689Z,99576.39
2022-08-22T06:46:51.691Z,99571.98
2022-08-22T06:48:07.302Z,99573.00
2022-08-22T06:49:09.934Z,99571.98
2022-08-22T06:50:16.261Z,99577.27
2022-08-22T06:51:19.921Z,99580.80
2022-08-22T06:52:24.844Z,99573.70
2022-08-22T06:53:35.773Z,99571.98
2022-08-22T06:54:40.079Z,99570.16
2022-08-22T06:57:07.861Z,99566.45
2022-08-22T06:58:16.853Z,99569.29
2022-08-22T07:00:35.934Z,99571.70
2022-08-22T07:01:44.981Z,99571.00
2022-08-22T07:03:17.204Z,99577.53
2022-08-22T07:04:24.102Z,99568.47
2022-08-22T07:05:29.614Z,99568.34
2022-08-22T07:06:37.420Z,99567.52
2022-08-22T07:07:40.580Z,99569.78
2022-08-22T07:08:43.242Z,99570.62
2022-08-22T07:09:48.264Z,99571.34
2022-08-22T07:11:00.367Z,99562.39
2022-08-22T07:12:06.302Z,99561.41
2022-08-22T07:13:11.808Z,99564.39
2022-08-22T07:14:18.034Z,99565.48
2022-08-22T07:15:26.603Z,99563.38
2022-08-22T07:17:50.209Z,99567.48
2022-08-22T07:18:52.532Z,99560.80
2022-08-22T07:20:01.103Z,99567.74
2022-08-22T07:21:04.187Z,99567.05
2022-08-22T07:22:13.822Z,99563.48
2022-08-22T07:23:31.980Z,99559.11
2022-08-22T07:24:34.536Z,99568.87
2022-08-22T07:27:01.627Z,99564.80
2022-08-22T07:29:53.842Z,99564.20
2022-08-22T07:32:19.817Z,99560.38
2022-08-22T07:35:20.076Z,99557.39
2022-08-22T07:36:32.829Z,99558.08
2022-08-22T07:37:45.058Z,99552.70
2022-08-22T07:39:23.344Z,99554.55
2022-08-22T07:40:35.141Z,99555.39
2022-08-22T07:43:21.233Z,99555.14
2022-08-22T07:44:24.129Z,99555.13
2022-08-22T07:45:48.943Z,99548.88
2022-08-22T07:46:57.885Z,99555.13
2022-08-22T07:48:25.764Z,99555.69
2022-08-22T07:49:30.979Z,99554.70
2022-08-22T07:51:54.479Z,99551.03
2022-08-22T07:53:10.375Z,99550.16
2022-08-22T07:54:14.785Z,99546.91
2022-08-22T07:55:18.819Z,99545.34
2022-08-22T07:56:23.469Z,99546.33
2022-08-22T07:57:34.271Z,99542.80
2022-08-22T07:58:36.827Z,99545.20
2022-08-22T07:59:47.993Z,99544.07
2022-08-22T08:00:50.655Z,99550.16
2022-08-22T08:01:55.530Z,99541.81
2022-08-22T08:03:02.045Z,99549.17
2022-08-22T08:04:07.707Z,99542.22
2022-08-22T08:05:10.449Z,99548.48
2022-08-22T08:06:13.749Z,99549.17
2022-08-22T08:07:16.889Z,99548.88
2022-08-22T08:08:40.465Z,99548.63
2022-08-22T08:09:46.874Z,99546.63
2022-08-22T08:10:49.602Z,99548.73
2022-08-22T08:11:54.372Z,99552.85
2022-08-22T08:13:02.370Z,99554.27
2022-08-22T08:14:06.211Z,99555.84
2022-08-22T08:15:12.018Z,99556.30
2022-08-22T08:17:32.569Z,99545.80
2022-08-22T08:18:36.549Z,99552.47
2022-08-22T08:19:40.039Z,99551.06
2022-08-22T08:20:42.904Z,99542.97
2022-08-22T08:21:52.006Z,99548.63
2022-08-22T08:22:56.301Z,99545.34
2022-08-22T08:23:59.691Z,99549.17
2022-08-22T08:25:04.135Z,99544.66
2022-08-22T08:26:12.406Z,99553.28
2022-08-22T08:27:23.261Z,99552.16
2022-08-22T08:28:25.658Z,99554.13
2022-08-22T08:29:27.881Z,99552.30
2022-08-22T08:30:37.043Z,99550.59
2022-08-22T08:31:43.185Z,99550.59
2022-08-22T08:32:47.497Z,99547.06
2022-08-22T08:33:52.273Z,99551.43
2022-08-22T08:34:54.824Z,99553.14
2022-08-22T08:36:08.194Z,99552.01
2022-08-22T08:38:59.063Z,99551.19
2022-08-22T08:40:04.053Z,99552.88
2022-08-22T08:49:33.749Z,99552.99
2022-08-22T08:53:43.330Z,99557.27
2022-08-22T08:54:52.155Z,99553.73
2022-08-22T08:56:01.275Z,99553.01
2022-08-22T08:57:36.206Z,99551.33
2022-08-22T08:59:00.571Z,99555.85
2022-08-22T09:00:09.709Z,99557.56
2022-08-22T09:01:35.850Z,99546.63
2022-08-22T09:02:59.971Z,99547.50
2022-08-22T09:04:20.067Z,99558.14
2022-08-22T09:05:32.566Z,99544.80
2022-08-22T09:07:01.341Z,99551.33
2022-08-22T09:08:40.272Z,99549.63
2022-08-22T09:10:01.524Z,99548.89
2022-08-22T09:11:37.799Z,99550.46
2022-08-22T09:13:11.621Z,99548.78
2022-08-22T09:14:27.206Z,99554.29
2022-08-22T09:17:04.773Z,99547.20
2022-08-22T09:18:26.990Z,99547.48
2022-08-22T09:34:09.252Z,99544.91
2022-08-22T09:37:03.285Z,99543.63
2022-08-22T09:39:54.121Z,99544.50
2022-08-22T09:40:15.239Z,99549.75
2022-08-22T09:41:23.083Z,99545.49
2022-08-22T09:42:44.974Z,99544.51
2022-08-22T09:44:15.099Z,99536.42
2022-08-22T09:45:27.150Z,99540.80
2022-08-22T09:46:40.730Z,99544.77
2022-08-22T09:49:25.058Z,99541.40
2022-08-22T09:50:52.725Z,99544.91
2022-08-22T09:52:15.572Z,99545.67
2022-08-22T09:53:22.110Z,99537.28
2022-08-22T09:54:47.646Z,99533.45
2022-08-22T09:56:15.115Z,99528.61
2022-08-22T09:57:36.406Z,99533.59
2022-08-22T09:58:45.621Z,99531.59
2022-08-22T09:59:51.464Z,99538.54
2022-08-22T10:02:15.488Z,99529.00
2022-08-22T10:04:52.957Z,99541.20
2022-08-22T10:06:07.381Z,99534.84
2022-08-22T10:12:03.020Z,99534.97
2022-08-22T10:15:15.821Z,99528.95
2022-08-22T10:18:12.267Z,99536.77
2022-08-22T10:21:02.276Z,99531.41
2022-08-22T10:22:29.912Z,99532.24
2022-08-22T10:23:55.009Z,99533.23
2022-08-22T10:25:22.770Z,99527.00
2022-08-22T10:26:41.718Z,99534.94
2022-08-22T10:27:56.988Z,99530.38
2022-08-22T10:30:24.161Z,99529.22
2022-08-22T10:32:53.508Z,99536.05
2022-08-22T10:37:23.610Z,99530.35
2022-08-22T10:38:28.080Z,99536.77
2022-08-22T10:39:38.022Z,99532.75
2022-08-22T10:41:03.667Z,99545.10
2022-08-22T10:42:12.241Z,99536.05
2022-08-22T10:43:19.211Z,99536.05
2022-08-22T10:44:31.149Z,99532.36
2022-08-22T10:45:36.602Z,99534.07
2022-08-22T10:48:07.978Z,99532.86
2022-08-22T10:50:35.256Z,99529.89
2022-08-22T10:53:29.591Z,99534.16
2022-08-22T10:55:48.356Z,99536.54
2022-08-22T10:58:19.233Z,99532.97
2022-08-22T10:59:41.667Z,99541.11
2022-08-22T11:00:49.757Z,99542.13
2022-08-22T11:02:08.848Z,99539.28
2022-08-22T11:03:44.227Z,99539.13
2022-08-22T11:05:09.018Z,99541.67
2022-08-22T11:06:31.550Z,99540.69
2022-08-22T11:07:41.898Z,99540.84
2022-08-22T11:08:52.574Z,99539.28
2022-08-22T11:11:20.809Z,99534.67
2022-08-22T11:12:44.489Z,99529.47
2022-08-22T11:14:10.691Z,99540.27
2022-08-22T11:15:28.468Z,99541.11
2022-08-22T11:16:36.775Z,99543.53
2022-08-22T11:18:19.112Z,99543.66
2022-08-22T11:19:37.370Z,99539.28
2022-08-22T11:20:59.594Z,99533.16
2022-08-22T11:22:15.062Z,99540.27
2022-08-22T11:23:28.179Z,99543.95
2022-08-22T11:24:55.334Z,99541.26
2022-08-22T11:26:30.071Z,99540.42
2022-08-22T11:27:38.313Z,99552.20
2022-08-22T11:28:58.219Z,99546.95
2022-08-22T11:30:25.866Z,99542.55
2022-08-22T11:31:36.756Z,99539.16
2022-08-22T11:33:00.913Z,99535.48
2022-08-22T11:34:10.256Z,99534.61
2022-08-22T11:35:24.414Z,99538.02
2022-08-22T11:36:46.386Z,99546.95
2022-08-22T11:37:59.453Z,99548.66
2022-08-22T11:39:32.417Z,99545.09
2022-08-22T11:40:41.863Z,99538.71
2022-08-22T11:43:37.935Z,99535.67
2022-08-22T11:46:03.019Z,99534.67
2022-08-22T11:47:10.573Z,99540.11
2022-08-22T11:48:39.978Z,99548.22
2022-08-22T11:50:06.957Z,99542.81
2022-08-22T11:51:15.266Z,99540.11
2022-08-22T11:52:21.684Z,99541.83
2022-08-22T11:53:29.312Z,99546.35
2022-08-22T11:56:05.512Z,99545.32
2022-08-22T11:57:19.115Z,99544.53
2022-08-22T11:58:29.418Z,99541.83
2022-08-22T12:01:05.964Z,99534.22
2022-08-22T12:02:21.097Z,99545.06
2022-08-22T12:03:41.868Z,99544.22
2022-08-22T12:04:47.683Z,99546.92
2022-08-22T12:05:54.270Z,99547.64
2022-08-22T12:07:22.854Z,99541.37
2022-08-22T12:08:35.427Z,99538.67
2022-08-22T12:09:58.185Z,99544.79
2022-08-22T12:11:14.681Z,99549.16
2022-08-22T12:12:38.959Z,99546.31
2022-08-22T12:13:51.842Z,99540.91
2022-08-22T12:15:23.568Z,99548.02
2022-08-22T12:16:48.302Z,99550.87
2022-08-22T12:19:35.457Z,99547.30
2022-08-22T12:20:46.395Z,99541.37
2022-08-22T12:22:13.041Z,99536.96
2022-08-22T12:23:49.376Z,99539.66
2022-08-22T12:25:02.732Z,99534.27
2022-08-22T12:26:30.965Z,99556.58
2022-08-22T12:27:57.638Z,99545.78
2022-08-22T12:29:33.434Z,99545.93
2022-08-22T12:30:36.622Z,99541.52
2022-08-22T12:33:24.621Z,99550.30
2022-08-22T12:34:48.545Z,99554.03
2022-08-22T12:36:18.414Z,99541.52
2022-08-22T12:37:22.324Z,99546.92
2022-08-22T12:38:47.948Z,99561.25
2022-08-22T12:40:06.214Z,99553.30
2022-08-22T12:41:28.105Z,99557.03
2022-08-22T12:42:41.858Z,99550.91
2022-08-22T12:44:19.104Z,99561.02
2022-08-22T12:45:43.125Z,99549.36
2022-08-22T12:47:07.221Z,99556.61
2022-08-22T12:48:18.060Z,99552.20
2022-08-22T12:49:27.994Z,99557.75
2022-08-22T12:50:43.521Z,99556.91
2022-08-22T12:52:06.315Z,99545.25
2022-08-22T12:53:29.225Z,99550.80
2022-08-22T12:56:10.370Z,99541.52
2022-08-22T12:57:33.698Z,99545.09
2022-08-22T12:58:56.832Z,99543.95
2022-08-22T13:01:16.912Z,99539.08
2022-08-22T13:02:25.525Z,99551.75
2022-08-22T13:03:29.671Z,99545.36
2022-08-22T13:04:34.437Z,99558.86
2022-08-22T13:05:40.976Z,99539.97
2022-08-22T13:06:48.810Z,99547.07
2022-08-22T13:07:55.790Z,99547.91
2022-08-22T13:08:58.979Z,99545.06
2022-08-22T13:11:28.525Z,99552.53
2022-08-22T13:12:44.399Z,99550.87
2022-08-22T13:13:56.024Z,99563.23
2022-08-22T13:14:58.341Z,99555.97
2022-08-22T13:16:14.719Z,99549.58
2022-08-22T13:17:24.966Z,99553.00
2022-08-22T13:18:30.603Z,99537.64
2022-08-22T13:19:32.254Z,99548.28
2022-08-22T13:20:40.853Z,99555.39
2022-08-22T13:21:48.847Z,99558.77
2022-08-22T13:22:51.053Z,99550.67
2022-08-22T13:23:56.129Z,99563.34
2022-08-22T13:25:09.471Z,99557.78
2022-08-22T13:27:52.273Z,99550.35
2022-08-22T13:29:15.477Z,99543.14
2022-08-22T13:31:38.327Z,99544.48
2022-08-22T13:34:08.202Z,99553.00
2022-08-22T13:36:52.144Z,99549.63
2022-08-22T13:37:56.961Z,99556.75
2022-08-22T13:39:15.078Z,99550.35
2022-08-22T13:40:27.119Z,99561.00
2022-08-22T13:41:34.547Z,99564.54
2022-08-22T13:42:45.067Z,99562.67
2022-08-22T13:43:56.472Z,99550.20
2022-08-22T13:45:02.536Z,99562.67
2022-08-22T13:46:06.514Z,99563.55
2022-08-22T13:47:16.183Z,99562.52
2022-08-22T13:48:21.085Z,99559.82
2022-08-22T13:49:36.929Z,99560.69
2022-08-22T13:52:33.066Z,99554.28
2022-08-22T13:55:21.338Z,99560.52
2022-08-22T13:56:27.671Z,99557.99
2022-08-22T13:57:33.377Z,99564.23
2022-08-22T13:58:40.941Z,99558.83
2022-08-22T13:59:52.469Z,99558.83
2022-08-22T14:01:25.408Z,99559.70
2022-08-22T14:02:48.718Z,99566.78
2022-08-22T14:04:17.579Z,99564.23
2022-08-22T14:05:27.322Z,99565.10
2022-08-22T14:06:44.596Z,99569.78
2022-08-22T14:09:17.307Z,99571.59
2022-08-22T14:10:24.916Z,99571.80
2022-08-22T14:11:48.100Z,99571.80
2022-08-22T14:13:01.619Z,99568.23
2022-08-22T14:14:06.559Z,99572.64
2022-08-22T14:15:10.816Z,99573.63
2022-08-22T14:17:42.009Z,99574.30
2022-08-22T14:18:46.192Z,99581.58
2022-08-22T14:21:21.696Z,99568.73
2022-08-22T14:23:40.634Z,99577.56
2022-08-22T14:26:08.657Z,99576.74
2022-08-22T14:27:14.792Z,99577.58
2022-08-22T14:28:27.745Z,99577.58
2022-08-22T14:29:45.829Z,99573.05
2022-08-22T14:31:08.268Z,99580.13
2022-08-22T14:32:23.357Z,99575.59
2022-08-22T14:33:26.404Z,99572.89
2022-08-22T14:34:31.702Z,99571.91
2022-08-22T14:35:44.807Z,99581.00
2022-08-22T14:38:29.715Z,99570.02
2022-08-22T14:39:58.003Z,99573.73
2022-08-22T14:41:13.204Z,99569.33
2022-08-22T14:42:32.529Z,99569.33
2022-08-22T14:43:53.512Z,99575.59
2022-08-22T14:45:07.956Z,99579.14
2022-08-22T14:46:13.905Z,99577.42
2022-08-22T14:48:41.513Z,99576.26
2022-08-22T14:49:55.967Z,99588.11
2022-08-22T14:51:01.293Z,99572.74
2022-08-22T14:52:19.541Z,99579.85
2022-08-22T14:53:24.963Z,99576.13
2022-08-22T14:54:29.352Z,99581.41
2022-08-22T14:55:31.871Z,99583.12
2022-08-22T14:57:59.307Z,99589.08
2022-08-22T14:59:10.546Z,99588.09
2022-08-22T15:00:18.630Z,99585.23
2022-08-22T15:01:25.050Z,99588.77
2022-08-22T15:02:29.610Z,99592.31
2022-08-22T15:03:32.953Z,99589.61
2022-08-22T15:04:38.697Z,99594.02
2022-08-22T15:06:58.519Z,99581.17
2022-08-22T15:08:01.202Z,99589.33
2022-08-22T15:09:08.328Z,99582.91
2022-08-22T15:10:23.721Z,99581.08
2022-08-22T15:11:27.565Z,99578.22
2022-08-22T15:12:39.986Z,99584.46
2022-08-22T15:13:52.988Z,99579.92
2022-08-22T15:17:44.394Z,99587.66
2022-08-22T15:18:51.723Z,99581.45
2022-08-22T15:19:52.279Z,99588.72
2022-08-22T15:21:08.582Z,99585.17
2022-08-22T15:22:20.113Z,99580.77
2022-08-22T15:23:23.079Z,99574.37
2022-08-22T15:24:25.623Z,99585.86
2022-08-22T15:26:55.437Z,99576.77
2022-08-22T15:28:14.049Z,99578.47
2022-08-22T15:29:18.962Z,99584.55
2022-08-22T15:30:33.335Z,99587.41
2022-08-22T15:31:36.424Z,99588.25
2022-08-22T15:32:42.506Z,99585.55
2022-08-22T15:33:45.567Z,99582.84
2022-08-22T15:34:48.230Z,99583.72
2022-08-22T15:35:53.963Z,99584.55
2022-08-22T15:37:19.152Z,99584.40
2022-08-22T15:38:32.291Z,99585.12
2022-08-22T15:39:39.162Z,99586.11
2022-08-22T15:40:43.914Z,99584.25
2022-08-22T15:41:48.795Z,99586.11
2022-08-22T15:42:52.715Z,99587.97
2022-08-22T15:44:30.863Z,99581.70
2022-08-22T15:46:46.044Z,99585.05
2022-08-22T15:47:52.068Z,99583.41
2022-08-22T15:49:05.619Z,99579.00
2022-08-22T15:51:50.425Z,99591.45
2022-08-22T15:53:13.020Z,99583.72
2022-08-22T15:54:24.873Z,99581.02
2022-08-22T15:55:29.139Z,99589.13
2022-08-22T15:56:38.593Z,99586.42
2022-08-22T15:59:14.162Z,99592.75
2022-08-22T16:00:43.862Z,99591.11
2022-08-22T16:01:49.768Z,99593.81
2022-08-22T16:03:14.245Z,99593.81
2022-08-22T16:04:21.432Z,99594.84
2022-08-22T16:06:59.989Z,99595.11
2022-08-22T16:09:44.405Z,99597.97
2022-08-22T16:10:55.933Z,99598.28
2022-08-22T16:11:58.291Z,99592.19
2022-08-22T16:13:27.329Z,99603.12
2022-08-22T16:14:36.443Z,99597.87
2022-08-22T16:15:56.476Z,99601.59
2022-08-22T16:17:01.788Z,99600.72
2022-08-22T16:18:04.290Z,99593.77
2022-08-22T16:20:25.743Z,99596.41
2022-08-22T16:21:32.865Z,99595.75
2022-08-22T16:22:59.211Z,99596.74
2022-08-22T16:24:06.120Z,99605.00
2022-08-22T16:25:10.367Z,99595.19
2022-08-22T16:27:29.143Z,99600.57
2022-08-22T16:28:57.340Z,99604.16
2022-08-22T16:29:41.647Z,99605.99
2022-08-22T16:30:44.866Z,99616.80
2022-08-22T16:31:52.030Z,99604.16
2022-08-22T16:32:54.534Z,99607.70
2022-08-22T16:34:20.055Z,99607.70
2022-08-22T16:37:16.834Z,99608.42
2022-08-22T16:38:25.101Z,99607.55
2022-08-22T16:39:44.666Z,99607.55
2022-08-22T16:40:47.121Z,99611.23
2022-08-22T16:42:11.966Z,99603.29
2022-08-22T16:44:31.869Z,99609.55
2022-08-22T16:46:52.645Z,99611.53
2022-08-22T16:47:58.491Z,99608.00
2022-08-22T16:49:02.026Z,99609.83
2022-08-22T16:50:20.373Z,99608.00
2022-08-22T16:51:23.595Z,99604.31
2022-08-22T16:52:30.669Z,99604.16
2022-08-22T16:53:46.128Z,99608.69
2022-08-22T16:56:15.090Z,99613.94
2022-08-22T16:59:23.349Z,99619.05
2022-08-22T17:00:27.807Z,99616.52
2022-08-22T17:01:49.190Z,99621.05
2022-08-22T17:03:19.095Z,99620.21
2022-08-22T17:06:09.741Z,99613.23
2022-08-22T17:07:28.778Z,99617.94
2022-08-22T17:08:54.639Z,99624.21
2022-08-22T17:10:12.374Z,99623.64
2022-08-22T17:11:23.831Z,99620.95
2022-08-22T17:12:48.038Z,99624.63
2022-08-22T17:14:06.652Z,99619.23
2022-08-22T17:16:53.909Z,99632.72
2022-08-22T17:19:40.338Z,99624.89
2022-08-22T17:21:04.618Z,99623.27
2022-08-22T17:23:46.499Z,99617.81
2022-08-22T17:24:52.551Z,99632.35
2022-08-22T17:26:16.460Z,99633.19
2022-08-22T17:27:34.660Z,99635.05
2022-08-22T17:28:43.869Z,99629.66
2022-08-22T17:30:03.380Z,99634.18
2022-08-22T17:32:36.134Z,99630.45
2022-08-22T17:33:51.956Z,99632.35
2022-08-22T17:35:00.802Z,99638.59
2022-08-22T17:36:26.231Z,99634.18
2022-08-22T17:37:32.667Z,99642.28
2022-08-22T17:38:51.516Z,99635.89
2022-08-22T17:39:58.793Z,99637.75
2022-08-22T17:41:26.141Z,99637.75
2022-08-22T17:42:49.310Z,99635.89